Date,TemperatureHighF,TemperatureAvgF,TemperatureLowF,DewpointHighF,DewpointAvgF,DewpointLowF,HumidityHigh,HumidityAvg,HumidityLow,PressureMaxIn,PressureMinIn,WindSpeedMaxMPH,WindSpeedAvgMPH,GustSpeedMaxMPH,PrecipitationSumIn
2013-1-1,25.8,19.8,10.0,20.4,16.2,7.2,91,86,75,30.37,30.19,6,2,9,0.02
2013-1-2,32.6,20.2,9.9,26.2,16.2,7.1,92,85,70,30.37,30.23,8,2,14,0.00
2013-1-3,33.7,21.5,12.5,25.2,17.2,9.4,94,84,64,30.54,30.37,6,2,9,0.00
2013-1-4,46.2,27.6,11.5,28.0,20.5,8.6,92,76,47,30.48,30.26,12,4,14,0.01
2013-1-5,47.8,35.0,20.1,32.9,27.1,15.3,88,74,51,30.31,30.10,12,6,17,0.00
2013-1-6,50.2,32.4,15.0,26.0,21.7,11.7,92,67,37,30.45,30.27,9,2,10,0.00
2013-1-7,53.6,38.2,27.3,28.7,24.9,20.6,77,60,37,30.27,30.02,16,10,20,0.00
2013-1-8,54.4,38.7,25.4,34.8,29.0,22.0,88,70,46,30.22,29.94,17,6,23,0.00
2013-1-9,52.7,36.6,20.3,34.7,28.3,17.5,92,73,48,30.45,30.22,9,2,17,0.00
2013-1-10,46.5,44.2,40.2,45.4,41.6,34.3,96,91,64,30.27,29.71,12,5,15,0.43
2013-1-11,55.9,48.5,36.5,48.0,42.7,22.8,97,82,35,29.84,29.49,17,12,21,0.00
2013-1-12,36.1,25.9,19.1,31.1,16.7,10.5,84,68,58,30.19,29.85,9,6,13,0.00
2013-1-13,27.5,17.1,10.1,10.3,7.5,5.4,86,67,45,30.44,30.17,8,4,15,0.00
2013-1-14,31.5,18.2,5.5,15.5,9.9,2.0,89,72,44,30.58,30.42,5,1,7,0.00
2013-1-15,35.2,21.7,9.4,16.9,12.5,6.2,91,70,43,30.43,30.25,4,1,7,0.00
2013-1-16,53.7,31.3,13.6,33.4,22.6,10.0,88,72,46,30.29,30.10,6,2,8,0.00
2013-1-17,54.7,36.4,22.1,34.1,27.4,19.3,92,72,41,30.53,30.30,6,2,8,0.00
2013-1-18,59.7,43.0,30.4,35.2,31.2,26.1,86,66,37,30.42,30.05,19,10,22,0.00
2013-1-19,62.0,37.0,26.8,33.9,27.1,21.2,92,71,28,30.27,30.02,6,2,9,0.00
2013-1-20,47.5,33.0,21.7,28.5,21.5,10.9,90,64,41,30.44,30.22,9,3,12,0.00
2013-1-21,36.3,23.1,11.4,16.3,12.8,7.2,84,66,43,30.48,30.33,7,2,9,0.00
2013-1-22,42.0,24.2,14.6,21.6,13.9,8.5,82,66,43,30.37,30.23,9,4,11,0.00
2013-1-23,56.6,31.6,11.7,31.7,20.1,8.8,92,66,38,30.41,30.18,6,2,11,0.00
2013-1-24,30.2,23.1,15.9,21.7,13.3,8.2,89,67,40,30.43,30.18,9,5,11,0.00
2013-1-25,52.4,33.4,15.4,29.5,22.8,12.7,92,68,37,30.33,30.20,5,1,8,0.00
2013-1-26,57.4,43.7,26.9,38.9,30.4,22.1,85,62,32,30.27,30.00,14,6,18,0.01
2013-1-27,66.1,51.0,42.3,56.9,46.8,38.3,97,86,69,29.99,29.68,18,10,23,0.01
2013-1-28,72.5,56.8,38.0,60.1,49.4,35.8,97,79,41,29.79,29.58,22,10,28,0.00
2013-1-29,63.1,40.4,32.5,59.3,36.7,29.9,92,87,71,29.65,29.49,13,6,15,0.00
2013-1-30,32.4,25.5,15.8,30.3,21.3,12.7,94,84,70,30.03,29.63,14,8,24,0.00
2013-1-31,26.5,20.2,9.4,20.8,14.2,4.5,89,78,58,30.52,30.01,11,3,13,0.00
2013-2-1,34.4,22.2,9.6,15.7,10.9,5.7,85,64,40,30.50,30.21,14,5,16,0.00
2013-2-2,53.7,37.6,23.4,35.9,26.7,14.5,88,66,43,30.31,30.21,11,4,14,0.00
2013-2-3,55.8,42.1,22.5,31.2,26.2,18.3,89,56,32,30.30,29.84,16,6,22,0.00
2013-2-4,52.0,39.7,24.5,33.6,28.8,21.2,89,66,47,29.97,29.80,10,3,13,0.00
2013-2-5,61.7,35.9,20.6,33.7,25.6,17.4,93,70,29,30.07,29.93,7,2,10,0.00
2013-2-6,58.8,47.3,32.3,53.2,41.1,26.3,93,80,54,30.06,29.82,16,7,20,0.02
2013-2-7,54.3,46.7,31.5,52.0,40.2,27.3,96,79,49,30.20,29.80,10,4,13,0.12
2013-2-8,42.3,32.2,23.9,35.2,28.7,21.7,96,87,72,30.37,30.16,11,4,13,0.00
2013-2-9,48.5,39.7,32.5,41.1,35.4,29.9,96,85,73,30.16,29.63,17,10,23,0.01
2013-2-10,48.8,40.6,28.6,44.2,31.8,22.2,96,72,49,30.06,29.46,20,11,30,0.04
2013-2-11,44.4,31.9,22.9,23.7,21.1,17.4,84,66,40,30.25,30.06,8,3,13,0.00
2013-2-12,40.9,32.3,24.7,27.2,24.2,20.3,89,73,51,30.21,30.03,4,1,5,0.00
2013-2-13,56.0,38.7,18.2,27.9,23.1,15.2,92,58,28,30.03,29.89,13,4,20,0.00
2013-2-14,48.7,37.7,25.9,34.1,26.7,19.3,84,65,45,30.31,29.93,9,4,14,0.00
2013-2-15,40.6,29.1,16.3,20.2,16.8,12.3,87,62,38,30.45,30.32,10,4,16,0.00
2013-2-16,47.9,29.2,8.7,29.6,17.7,4.6,88,65,37,30.43,30.05,13,4,19,0.00
2013-2-17,66.8,45.4,22.1,36.9,28.4,17.7,90,57,27,30.04,29.55,15,6,18,0.00
2013-2-18,53.3,43.3,22.0,38.9,28.0,14.8,80,56,40,30.14,29.43,18,10,28,0.00
2013-2-19,42.6,28.9,15.1,19.7,15.0,8.0,86,59,38,30.38,30.14,7,2,11,0.00
2013-2-20,28.2,25.4,22.5,25.6,17.0,6.1,92,73,42,30.31,30.06,15,11,21,0.00
2013-2-21,23.7,21.5,15.3,21.7,19.3,12.9,93,91,88,30.08,29.77,12,7,20,0.00
2013-2-22,25.2,14.5,1.8,20.8,10.8,-1.4,90,85,78,30.20,29.96,9,4,10,0.08
2013-2-23,32.8,15.3,-3.1,27.5,11.3,-6.7,89,84,74,30.19,29.99,8,2,8,0.03
2013-2-24,39.6,31.5,19.1,31.4,25.5,15.1,88,79,69,30.00,29.84,12,6,14,0.00
2013-2-25,35.1,32.4,30.1,31.2,29.8,28.3,96,90,81,29.93,29.75,10,7,15,0.16
2013-2-26,32.0,29.0,25.2,29.2,26.8,23.7,96,92,85,29.97,29.76,11,7,14,0.21
2013-2-27,36.9,30.9,26.1,27.9,25.7,22.7,92,81,68,30.22,29.97,12,7,18,0.01
2013-2-28,34.5,30.8,24.5,28.2,25.7,20.7,87,81,75,30.28,30.21,10,6,14,0.00
2013-3-1,33.7,28.1,18.3,25.5,22.5,14.6,87,80,66,30.40,30.26,9,4,12,0.00
2013-3-2,36.9,24.4,9.8,27.8,19.1,7.0,90,81,64,30.44,30.20,4,1,6,0.00
2013-3-3,45.7,36.5,24.5,37.2,30.1,19.5,87,78,68,30.20,29.63,8,4,9,0.00
2013-3-4,44.4,38.6,30.5,37.9,33.7,27.4,93,83,75,30.10,29.58,9,4,14,0.04
2013-3-5,41.3,32.6,21.7,33.3,22.0,16.9,92,65,49,30.43,30.10,15,8,20,0.01
2013-3-6,45.5,30.9,17.6,28.0,22.1,14.0,90,72,46,30.48,30.21,10,4,13,0.00
2013-3-7,64.1,45.7,30.4,36.4,29.9,24.5,80,57,31,30.21,30.00,15,8,20,0.00
2013-3-8,60.8,50.9,42.4,50.2,40.8,31.6,81,69,53,30.06,29.85,14,10,20,0.00
2013-3-9,58.9,53.0,42.1,57.5,50.4,40.0,96,91,78,29.86,29.50,14,8,17,0.83
2013-3-10,41.7,31.2,27.4,39.8,27.6,21.6,94,86,78,30.07,29.56,15,11,28,0.00
2013-3-11,46.6,32.2,21.1,29.6,21.5,16.6,83,67,37,30.08,29.98,10,5,12,0.00
2013-3-12,50.7,39.6,24.5,33.4,27.1,20.1,85,63,37,30.38,30.05,11,3,16,0.00
2013-3-13,55.2,36.9,18.5,34.4,25.8,16.3,94,67,38,30.49,30.27,10,4,14,0.00
2013-3-14,42.6,40.4,36.6,29.7,29.3,28.9,74,65,59,30.27,30.23,8,5,11,0.00
2013-3-15,82.9,62.8,38.6,54.0,48.2,35.9,93,62,29,29.93,29.64,11,4,14,0.00
2013-3-16,53.5,44.1,34.4,47.0,36.4,28.2,90,74,60,30.01,29.67,9,6,14,0.00
2013-3-17,39.9,36.1,33.3,35.0,31.1,27.4,94,82,77,30.02,29.71,10,5,11,0.00
2013-3-18,56.6,43.1,33.2,36.0,29.5,20.4,95,65,25,30.04,29.76,11,4,17,0.00
2013-3-19,51.4,38.4,23.6,31.0,24.5,16.9,88,59,35,30.30,30.03,11,3,17,0.00
2013-3-20,47.0,35.4,24.5,30.4,21.5,15.4,93,60,33,30.45,30.05,9,3,13,0.00
2013-3-21,48.9,38.0,32.9,29.3,22.3,17.7,85,55,36,30.05,29.73,21,13,24,0.00
2013-3-22,48.5,36.1,29.8,36.0,30.9,28.0,94,82,58,30.00,29.86,8,3,10,0.00
2013-3-23,35.3,32.4,29.9,31.8,30.3,28.0,94,92,85,29.99,29.87,8,5,12,0.08
2013-3-24,33.0,27.5,22.5,28.2,22.6,19.7,95,82,62,30.21,29.97,13,10,20,0.02
2013-3-25,32.5,26.7,18.8,21.1,18.5,14.8,84,72,57,30.44,30.21,13,8,18,0.00
2013-3-26,45.4,29.5,12.4,30.0,21.1,9.8,92,73,51,30.49,30.24,8,3,10,0.00
2013-3-27,59.4,45.0,33.0,39.9,31.7,24.9,80,61,43,30.24,30.08,13,6,15,0.00
2013-3-28,67.0,48.3,30.6,49.0,38.7,27.4,89,71,44,30.16,30.05,8,2,10,0.00
2013-3-29,71.0,57.3,43.1,57.2,49.7,40.4,93,77,55,30.13,29.99,10,4,15,0.00
2013-3-30,69.4,55.6,47.0,60.6,52.1,45.0,95,88,63,30.00,29.84,13,4,16,0.41
2013-3-31,47.2,45.5,43.1,38.1,37.4,36.3,80,73,70,29.93,29.93,2,1,2,0.04
2013-4-1,48.1,40.0,35.3,40.1,30.1,23.4,88,68,51,30.30,29.93,8,3,12,0.02
2013-4-2,42.7,37.7,33.0,31.7,26.1,22.7,87,64,49,30.32,30.23,8,4,10,0.03
2013-4-3,40.6,37.4,32.7,36.0,32.0,27.1,93,81,64,30.37,30.26,9,3,10,0.11
2013-4-4,59.1,43.9,36.8,45.7,37.6,34.1,92,80,55,30.27,30.09,5,2,7,0.00
2013-4-5,64.4,49.5,30.1,49.6,41.2,28.4,96,75,55,30.15,29.78,15,7,21,0.01
2013-4-6,73.8,59.6,45.9,53.0,46.3,40.9,83,64,37,29.81,29.67,18,8,24,0.00
2013-4-7,71.2,57.6,41.7,58.1,51.0,38.4,92,79,55,29.81,29.60,14,5,17,0.01
2013-4-8,71.6,63.8,57.8,62.9,59.5,55.8,95,86,71,29.65,29.51,13,7,16,0.00
2013-4-9,70.5,55.8,31.3,63.7,51.8,29.5,93,87,73,29.95,29.47,16,10,23,0.52
2013-4-10,31.8,29.8,28.9,30.0,27.9,26.9,93,92,91,30.05,29.82,14,1,19,0.19
2013-4-11,49.8,36.4,25.8,35.7,30.0,23.8,92,79,54,29.99,29.75,10,3,15,0.13
2013-4-12,57.6,40.1,26.8,41.1,32.1,23.4,91,75,48,30.04,29.88,7,3,13,0.00
2013-4-13,68.4,52.0,30.1,55.5,43.0,28.3,95,73,59,30.07,29.56,14,7,18,0.01
2013-4-14,70.7,60.9,51.0,58.6,45.4,30.3,76,59,26,29.70,29.39,17,9,22,0.00
2013-4-15,52.8,48.3,43.0,41.1,35.4,28.8,79,62,41,29.95,29.67,7,4,14,0.08
2013-4-16,47.3,42.9,40.8,38.9,33.6,29.6,92,70,61,30.09,29.91,10,6,16,0.03
2013-4-17,45.3,42.0,39.6,44.1,40.7,38.0,96,95,92,30.01,29.71,10,5,15,0.42
2013-4-18,39.4,35.5,31.9,37.8,30.4,25.5,94,82,68,30.10,29.72,15,10,23,0.08
2013-4-19,60.6,42.0,27.2,37.5,29.8,23.0,85,64,38,30.13,30.02,13,6,18,0.03
2013-4-20,60.1,47.8,33.9,44.3,36.9,28.3,82,67,49,30.11,29.98,12,7,16,0.00
2013-4-21,66.1,56.4,48.3,50.0,44.3,39.5,79,64,50,30.12,30.01,14,7,19,0.00
2013-4-22,66.3,51.9,35.3,58.4,45.8,32.7,90,80,66,30.12,29.81,13,6,20,0.19
2013-4-23,35.0,32.5,30.5,32.8,29.1,26.5,92,87,75,30.30,29.99,12,8,19,0.48
2013-4-24,58.7,40.5,22.5,39.1,31.5,20.3,93,73,38,30.34,30.20,6,3,11,0.03
2013-4-25,66.9,53.0,30.2,46.4,39.7,27.6,94,63,39,30.32,30.02,14,6,21,0.00
2013-4-26,55.5,50.6,48.2,49.6,46.8,38.0,95,87,52,30.13,30.01,13,6,16,0.24
2013-4-27,64.4,51.6,46.5,54.8,48.7,44.3,96,90,71,30.14,29.97,6,2,10,0.03
2013-4-28,71.7,50.8,40.4,58.9,47.7,39.1,97,90,63,29.99,29.70,13,4,15,0.01
2013-4-29,69.0,57.7,52.6,63.6,54.0,50.0,96,88,75,29.74,29.70,8,3,9,0.00
2013-4-30,79.9,73.6,63.5,66.7,60.2,55.6,78,63,55,29.68,29.57,18,10,22,0.00
2013-5-1,68.8,53.3,37.3,62.3,47.6,34.1,92,82,63,30.27,29.68,12,7,20,0.03
2013-5-2,50.4,39.4,33.3,36.3,32.6,27.9,94,79,43,30.51,30.24,12,8,21,0.59
2013-5-3,56.7,43.7,31.8,36.0,31.5,28.5,88,65,38,30.41,30.01,12,5,20,0.22
2013-5-4,47.4,42.5,38.4,40.2,35.6,28.4,91,77,59,30.12,29.93,11,7,20,0.01
2013-5-5,61.4,48.7,41.6,51.7,44.3,39.7,94,86,69,30.19,30.07,8,4,12,0.00
2013-5-6,68.1,51.2,36.8,56.0,46.4,35.2,96,85,60,30.16,30.02,5,1,6,0.01
2013-5-7,70.7,57.6,41.6,60.5,51.7,39.7,97,82,63,30.06,29.88,9,4,11,0.03
2013-5-8,75.7,63.8,56.6,67.1,58.9,52.9,94,85,70,29.98,29.71,14,6,15,0.12
2013-5-9,71.0,61.5,52.8,61.1,56.2,51.1,95,83,65,29.97,29.80,9,3,11,0.02
2013-5-10,70.0,58.6,47.5,55.8,52.1,45.0,95,81,54,30.07,29.95,8,4,11,0.00
2013-5-11,67.1,54.7,40.1,51.7,42.6,35.8,97,68,34,30.25,30.06,10,3,16,0.00
2013-5-12,67.2,51.4,35.8,50.1,42.5,34.1,96,74,48,30.29,30.06,10,4,14,0.00
2013-5-13,80.7,62.3,41.8,64.0,52.9,39.4,93,73,51,30.09,29.88,7,2,9,0.00
2013-5-14,87.2,71.6,54.4,64.0,55.9,48.6,85,60,34,29.89,29.73,16,7,23,0.00
2013-5-15,79.5,68.5,57.9,68.8,60.2,54.9,93,75,57,29.79,29.71,14,7,18,0.00
2013-5-16,76.8,67.1,56.2,65.8,61.2,53.4,97,82,64,29.82,29.72,7,2,10,0.00
2013-5-17,81.3,67.4,50.8,68.4,61.2,49.4,97,82,61,29.86,29.75,7,2,10,0.00
2013-5-18,82.9,73.1,62.3,74.1,68.6,59.8,95,86,63,29.81,29.56,13,5,14,0.03
2013-5-19,80.0,65.7,54.2,72.6,61.4,52.2,95,86,72,29.74,29.43,20,4,22,0.80
2013-5-20,76.3,64.7,49.9,63.5,57.1,48.4,96,78,56,29.74,29.59,7,1,9,0.00
2013-5-21,72.4,61.3,49.5,57.2,50.9,46.3,89,70,44,29.79,29.67,9,3,12,0.00
2013-5-22,74.8,61.1,49.0,57.2,51.8,46.4,91,73,50,29.90,29.76,9,3,14,0.00
2013-5-23,72.2,61.3,51.9,60.3,53.9,48.9,93,77,61,30.14,29.91,6,2,9,0.00
2013-5-24,75.3,65.4,54.5,67.9,60.2,52.1,93,83,75,30.16,29.99,11,6,15,0.00
2013-5-25,79.8,72.6,65.0,69.4,66.1,62.9,93,81,66,30.03,29.86,12,8,20,0.00
2013-5-26,81.2,72.3,65.1,72.5,67.3,62.5,92,85,72,29.92,29.75,14,8,18,0.00
2013-5-27,82.1,74.8,71.0,73.3,69.4,67.3,91,84,72,29.75,29.47,16,10,20,0.00
2013-5-28,83.8,75.1,69.3,75.3,69.6,66.6,92,83,72,29.64,29.48,15,9,20,0.00
2013-5-29,80.3,72.3,61.4,71.0,66.7,59.0,92,83,71,29.62,29.43,16,11,21,0.41
2013-5-30,78.5,66.2,57.5,66.9,61.1,56.3,96,85,60,29.63,29.45,9,3,13,2.30
2013-5-31,81.4,71.5,59.2,69.1,65.0,54.6,96,81,43,29.69,29.55,5,1,7,0.00
2013-6-1,68.8,62.5,54.2,61.0,53.3,48.7,94,73,62,30.02,29.68,10,5,17,0.00
2013-6-2,70.3,58.5,47.6,54.2,48.9,44.9,91,72,47,30.11,29.96,7,3,10,0.00
2013-6-3,78.3,64.2,49.4,63.2,56.0,46.7,95,76,54,29.99,29.72,10,5,15,0.01
2013-6-4,85.3,73.6,64.8,71.7,66.1,61.6,92,78,59,29.86,29.66,11,4,14,0.00
2013-6-5,70.3,65.5,58.9,65.7,61.4,55.4,96,87,72,29.97,29.78,7,2,11,0.93
2013-6-6,74.3,63.4,53.3,59.0,54.2,51.3,94,74,47,29.98,29.90,8,2,13,0.00
2013-6-7,78.7,64.6,50.1,61.5,55.1,48.7,96,74,48,29.99,29.83,4,0,8,0.00
2013-6-8,81.9,68.5,58.0,64.8,59.8,54.8,92,76,52,29.85,29.59,15,6,22,0.13
2013-6-9,86.6,71.3,58.3,67.3,59.7,54.2,95,71,34,29.84,29.74,9,3,14,0.00
2013-6-10,93.8,76.3,55.4,74.0,64.9,53.1,95,71,48,29.82,29.67,10,3,13,0.00
2013-6-11,95.7,82.2,66.6,68.2,63.5,57.5,82,56,31,29.75,29.63,16,9,20,0.00
2013-6-12,96.2,82.5,75.0,74.1,69.2,62.8,82,65,43,29.86,29.67,14,5,22,0.00
2013-6-13,89.1,78.0,64.5,69.0,63.0,55.8,82,61,45,30.00,29.86,7,4,10,0.00
2013-6-14,100.1,82.0,66.7,74.8,67.0,60.1,93,65,29,29.90,29.71,13,5,19,0.00
2013-6-15,74.6,72.1,69.1,67.5,66.2,64.6,87,82,77,29.82,29.80,2,1,3,0.00
2013-6-16,92.6,81.7,71.8,69.7,66.0,62.8,81,62,39,29.87,29.77,7,2,10,0.02
2013-6-17,85.8,73.6,64.7,70.4,65.4,62.0,94,77,49,29.94,29.74,14,3,25,0.35
2013-6-18,91.8,75.2,57.9,69.7,60.9,55.0,97,67,31,29.98,29.85,7,2,11,0.01
2013-6-19,89.0,76.0,61.5,69.4,64.6,59.5,95,70,45,29.92,29.81,10,5,17,0.01
2013-6-20,97.2,82.9,70.8,72.7,69.8,66.1,88,67,43,29.86,29.69,15,9,24,0.00
2013-6-21,99.8,86.1,75.7,71.8,68.9,66.6,74,58,35,29.81,29.72,14,10,22,0.00
2013-6-22,97.8,85.2,75.2,69.1,66.2,61.1,75,55,36,29.80,29.67,15,11,22,0.00
2013-6-23,97.2,84.7,77.1,68.5,66.7,62.0,72,57,35,29.77,29.67,14,10,20,0.00
2013-6-24,94.3,83.7,73.8,70.4,67.3,65.5,88,59,41,29.78,29.65,18,11,24,0.18
2013-6-25,94.7,81.6,74.4,72.8,71.3,68.5,87,72,47,29.71,29.56,17,9,22,0.00
2013-6-26,104.4,87.5,69.7,73.2,69.4,64.5,93,60,29,29.78,29.66,6,2,9,0.00
2013-6-27,106.6,87.7,69.7,76.5,73.0,64.7,95,66,34,29.82,29.67,9,3,13,0.00
2013-6-28,92.0,84.4,65.9,70.6,63.7,58.3,81,52,35,29.95,29.84,8,4,15,0.00
2013-6-29,87.5,75.3,62.1,63.3,57.2,51.0,87,57,34,29.92,29.80,11,4,15,0.00
2013-6-30,80.7,70.0,58.2,60.3,55.1,51.8,87,62,38,30.01,29.88,6,2,11,0.00
2013-7-1,81.8,68.1,52.6,57.0,51.7,48.1,92,60,34,30.10,30.01,6,2,12,0.00
2013-7-2,84.2,69.3,54.1,58.3,50.8,43.1,85,57,24,30.10,30.00,6,2,12,0.00
2013-7-3,87.4,70.5,54.4,57.9,52.0,47.6,93,57,27,30.06,29.89,8,2,12,0.00
2013-7-4,91.9,73.7,56.0,58.3,54.9,50.6,87,56,27,29.96,29.82,8,4,18,0.00
2013-7-5,93.2,80.3,66.1,62.7,59.0,55.8,78,51,30,29.86,29.74,19,9,25,0.00
2013-7-6,84.6,76.9,71.8,69.7,64.4,59.5,87,66,54,29.82,29.74,12,8,20,0.04
2013-7-7,101.5,86.9,73.7,66.1,63.9,61.4,77,49,29,29.87,29.77,15,11,21,0.03
2013-7-8,102.4,87.3,74.0,68.3,65.8,61.0,74,51,26,29.92,29.81,13,8,18,0.00
2013-7-9,108.2,90.9,76.9,71.0,67.3,59.8,76,50,24,29.88,29.71,15,8,20,0.02
2013-7-10,99.5,83.8,66.2,72.7,67.3,61.7,93,62,33,29.91,29.82,8,3,10,0.00
2013-7-11,94.6,82.4,70.4,70.6,65.3,61.2,83,57,35,29.99,29.82,11,7,15,0.00
2013-7-12,102.5,86.8,71.1,70.8,66.7,61.6,74,54,33,29.87,29.77,10,6,15,0.00
2013-7-13,101.0,87.5,74.3,72.3,69.7,67.3,81,58,37,29.86,29.75,13,7,15,0.00
2013-7-14,82.8,73.2,65.9,72.9,68.7,64.1,95,86,61,30.01,29.80,12,3,17,0.35
2013-7-15,82.5,70.4,62.1,72.2,64.6,60.1,96,83,60,30.12,30.01,12,2,14,0.25
2013-7-16,91.8,76.4,61.1,68.5,64.8,59.5,97,71,43,30.21,30.10,9,3,12,0.01
2013-7-17,93.8,78.7,66.4,71.5,68.5,64.6,96,74,42,30.23,30.10,9,2,13,0.00
2013-7-18,95.0,80.6,65.0,72.2,67.4,63.4,97,68,40,30.12,29.91,13,5,18,0.00
2013-7-19,97.6,83.4,68.2,70.5,67.0,64.3,92,61,35,29.94,29.76,11,4,13,0.00
2013-7-20,99.6,79.9,69.1,71.4,67.3,63.0,94,70,31,29.83,29.70,17,4,23,0.68
2013-7-21,89.2,77.2,68.6,73.9,70.6,67.3,96,81,59,29.81,29.71,9,4,13,0.57
2013-7-22,89.6,78.2,70.3,74.4,70.1,65.2,95,78,52,29.83,29.69,10,4,14,0.37
2013-7-23,96.0,80.2,69.5,72.2,68.4,65.6,91,70,38,29.86,29.69,12,5,18,0.45
2013-7-24,88.3,75.5,64.9,72.1,65.8,60.3,93,75,40,29.98,29.81,6,2,11,0.00
2013-7-25,88.6,74.9,64.9,73.1,67.9,61.7,92,80,59,29.99,29.91,9,2,11,0.02
2013-7-26,84.8,73.5,64.7,71.2,66.0,61.5,96,79,48,30.02,29.90,8,2,13,1.06
2013-7-27,77.4,66.3,58.0,61.6,57.7,54.3,90,75,56,30.08,29.91,7,3,9,0.17
2013-7-28,64.0,61.4,56.6,62.8,60.0,54.3,96,95,90,30.00,29.93,9,5,14,2.21
2013-7-29,74.4,67.8,61.7,72.9,65.9,60.0,96,94,90,29.97,29.77,11,5,20,0.78
2013-8-2,90.8,83.3,72.4,78.6,75.4,69.6,92,78,66,29.84,29.72,11,5,15,0.33
2013-8-3,88.5,79.5,70.6,76.6,72.5,67.7,94,80,64,29.97,29.79,11,5,14,0.07
2013-8-4,81.7,75.0,69.4,74.4,71.4,67.9,96,89,75,30.04,29.91,9,3,11,2.29
2013-8-5,86.0,78.4,72.4,77.1,73.4,70.4,94,85,72,29.92,29.71,7,4,15,0.00
2013-8-6,91.6,80.6,68.9,77.4,72.7,67.0,96,79,56,29.79,29.68,8,2,10,0.03
2013-8-7,88.3,77.0,70.6,76.2,71.3,67.0,94,83,64,29.86,29.71,10,2,13,0.17
2013-8-8,75.2,71.3,67.3,72.1,67.7,65.0,96,89,80,29.92,29.75,9,4,13,1.25
2013-8-9,72.0,66.6,61.6,65.6,63.4,59.9,95,89,78,30.09,29.89,6,2,9,1.18
2013-8-10,85.0,71.6,59.2,68.6,64.4,58.1,97,80,56,30.15,30.00,6,1,8,0.01
2013-8-11,85.5,74.5,62.2,72.4,67.7,60.8,97,81,60,30.07,29.93,8,2,11,0.00
2013-8-12,86.7,76.5,65.5,74.2,70.5,63.7,96,83,62,29.98,29.86,8,2,10,0.40
2013-8-13,80.5,70.9,65.0,72.7,68.0,63.3,95,91,74,30.06,29.92,7,2,9,0.61
2013-8-14,81.6,69.7,58.5,65.9,62.1,57.1,97,79,52,30.12,29.98,8,2,10,0.01
2013-8-15,84.8,70.8,60.5,71.0,64.0,57.7,95,80,62,30.04,29.87,10,4,14,0.99
2013-8-16,81.8,69.2,59.4,68.0,63.5,58.0,96,83,59,30.08,29.97,6,2,9,0.12
2013-8-17,81.0,69.3,59.2,65.5,61.3,57.3,95,77,56,30.11,30.00,7,3,10,0.00
2013-8-18,83.3,70.1,57.4,66.5,61.8,55.1,94,77,54,30.09,29.96,7,2,12,0.00
2013-8-19,87.5,74.5,62.2,70.5,66.0,60.2,94,77,55,30.02,29.89,10,4,15,0.00
2013-8-20,91.2,76.8,65.0,70.7,66.7,62.6,93,74,48,29.97,29.86,10,4,14,0.00
2013-8-21,93.2,78.5,65.7,70.3,66.4,62.4,91,69,42,29.96,29.88,10,4,14,0.00
2013-8-22,92.4,78.8,66.2,70.7,67.7,63.4,94,71,45,29.98,29.89,8,4,12,0.00
2013-8-23,94.0,80.7,68.4,74.5,70.7,66.1,94,74,48,29.96,29.85,9,4,14,0.00
2013-8-24,95.9,82.7,72.8,73.6,71.1,69.0,89,70,45,30.00,29.91,9,5,16,0.00
2013-8-25,97.0,82.7,71.7,73.5,70.3,68.3,90,69,42,30.07,29.98,10,5,14,0.00
2013-8-26,96.5,83.1,70.9,71.6,69.1,67.0,91,66,39,30.05,29.94,12,6,16,0.00
2013-8-27,96.0,81.4,68.3,68.7,65.6,59.1,93,63,32,29.97,29.88,11,5,17,0.00
2013-8-28,93.1,79.4,66.7,72.9,69.5,64.6,94,74,50,29.95,29.88,8,3,12,0.00
2013-8-29,100.7,84.5,71.8,71.4,67.6,62.5,89,62,29,29.93,29.83,10,4,15,0.00
2013-8-30,102.8,84.0,67.7,71.3,66.7,60.0,89,61,26,29.87,29.73,7,2,10,0.00
2013-8-31,100.9,83.4,67.0,75.9,70.0,63.8,91,68,36,29.79,29.66,8,2,11,0.00
2013-9-1,88.6,77.5,63.1,74.3,67.9,58.3,89,73,56,29.93,29.67,8,2,13,0.01
2013-9-2,85.2,69.8,55.0,64.9,58.7,52.7,94,72,41,30.03,29.92,4,1,9,0.00
2013-9-3,89.6,71.6,52.9,63.9,58.6,50.9,96,68,35,30.05,29.93,5,1,9,0.00
2013-9-4,92.5,73.2,55.0,64.4,58.4,52.7,95,65,30,30.09,29.98,7,2,9,0.00
2013-9-5,95.1,77.7,62.0,66.9,63.0,58.7,91,64,36,30.09,29.98,7,2,12,0.00
2013-9-6,99.1,81.1,65.5,67.8,65.2,61.4,90,62,34,30.03,29.85,9,3,15,0.00
2013-9-7,102.6,84.8,70.1,68.5,66.0,62.1,85,58,27,29.89,29.78,8,4,12,0.00
2013-9-8,102.5,83.4,67.1,69.4,64.6,61.7,87,57,28,29.83,29.72,10,3,12,0.00
2013-9-9,97.4,81.8,66.4,66.8,61.0,54.6,81,53,26,29.83,29.76,15,6,22,0.00
2013-9-10,96.7,81.7,69.8,67.0,62.2,58.4,75,54,33,29.98,29.83,13,6,19,0.00
2013-9-11,95.3,80.5,66.8,69.0,63.6,58.7,82,58,38,30.03,29.91,8,3,12,0.00
2013-9-12,74.4,72.5,70.5,70.7,69.1,64.9,94,89,81,30.06,30.01,3,1,4,0.52
2013-9-13,75.4,68.7,63.8,64.5,54.5,51.6,80,61,45,30.11,29.97,8,3,11,0.00
2013-9-14,85.0,71.1,58.6,64.2,58.2,51.9,83,65,47,30.00,29.83,8,4,13,0.00
2013-9-15,92.3,74.5,65.9,68.4,64.1,60.5,91,72,42,30.06,29.84,12,4,22,0.18
2013-9-16,65.7,63.3,61.9,63.6,61.7,60.3,96,95,91,30.13,30.03,5,2,10,0.09
2013-9-17,85.1,72.1,64.9,71.2,66.8,63.7,97,85,58,30.09,29.83,12,6,14,0.02
2013-9-18,94.1,80.0,68.5,70.0,66.1,61.8,89,66,38,29.86,29.68,18,10,22,0.00
2013-9-19,93.0,77.5,67.1,70.3,65.6,58.5,86,68,43,29.92,29.67,13,7,23,0.00
2013-9-20,74.8,63.3,50.3,58.4,51.6,47.4,91,68,41,30.05,29.91,6,2,16,0.00
2013-9-21,84.1,63.9,45.2,56.7,50.7,43.6,96,68,33,30.00,29.84,8,2,10,0.00
2013-9-22,80.9,66.1,50.3,56.3,51.7,47.7,93,64,34,29.89,29.74,11,5,15,0.00
2013-9-23,81.3,68.2,53.7,55.4,52.1,48.0,83,59,37,29.77,29.63,16,8,24,0.00
2013-9-24,75.8,65.6,52.7,58.7,54.1,49.2,90,67,51,29.86,29.71,12,6,20,0.00
2013-9-25,84.6,65.7,45.9,59.2,53.7,44.1,96,70,34,29.90,29.69,9,3,12,0.00
2013-9-26,93.1,76.8,61.9,61.2,58.6,55.1,80,56,32,29.73,29.63,15,8,21,0.00
2013-9-27,89.3,78.0,67.0,65.8,60.5,57.5,73,56,42,29.78,29.67,16,9,22,0.00
2013-9-28,76.4,61.8,45.4,67.7,51.6,42.9,93,72,39,30.08,29.65,13,6,17,0.56
2013-9-29,76.9,57.1,39.9,53.8,43.7,38.3,96,68,28,30.11,29.89,6,1,7,0.00
2013-9-30,82.2,62.9,44.0,54.9,50.2,41.9,95,68,34,29.91,29.74,10,4,14,0.01
2013-10-1,87.0,69.3,52.8,62.9,57.4,48.6,89,69,43,29.88,29.78,9,4,13,0.00
2013-10-2,86.1,73.0,62.8,70.9,66.4,59.6,95,81,58,29.88,29.74,12,6,16,0.00
2013-10-3,89.3,78.0,70.7,69.7,67.6,66.2,88,72,50,29.75,29.57,16,11,25,0.00
2013-10-4,91.8,74.7,53.9,69.9,60.3,33.5,84,63,36,29.93,29.59,19,11,24,0.02
2013-10-5,62.5,52.2,46.2,36.7,33.5,31.0,61,50,35,30.07,29.93,13,8,17,0.00
2013-10-6,68.1,53.5,43.0,41.4,33.1,25.7,66,48,21,30.06,29.96,12,6,18,0.00
2013-10-7,76.9,55.4,36.8,41.6,36.6,31.2,85,54,23,30.18,30.03,8,2,10,0.00
2013-10-8,78.7,62.6,48.1,49.9,44.9,39.7,77,55,31,30.05,29.89,14,7,20,0.00
2013-10-9,82.0,65.9,53.8,55.2,51.3,47.6,80,62,34,29.96,29.86,14,8,17,0.00
2013-10-10,83.4,71.1,58.8,60.8,57.4,53.0,81,63,46,29.92,29.70,13,9,24,0.00
2013-10-11,83.5,69.6,59.5,61.8,51.1,32.6,83,57,17,29.86,29.63,14,8,19,0.01
2013-10-12,71.5,57.4,41.9,45.5,40.1,34.7,87,56,26,30.22,29.85,5,2,12,0.00
2013-10-13,72.4,56.7,38.2,48.6,41.1,34.7,88,59,32,30.32,30.17,17,7,21,0.00
2013-10-14,63.9,60.4,56.4,60.0,52.9,44.8,94,78,53,30.17,29.76,13,8,19,0.43
2013-10-15,58.7,50.1,41.3,54.6,40.6,35.9,94,71,47,30.14,29.88,11,6,16,0.01
2013-10-16,55.7,44.8,36.2,39.6,36.4,32.7,90,74,49,30.18,30.04,7,3,11,0.00
2013-10-17,66.6,48.8,33.7,45.2,37.1,30.7,93,69,28,30.07,29.94,8,2,12,0.00
2013-10-18,45.9,37.1,29.2,38.1,33.1,26.7,92,85,74,30.19,30.05,5,2,7,0.36
2013-10-19,66.9,45.0,26.6,43.9,34.1,24.3,93,71,30,30.18,29.93,8,2,13,0.02
2013-10-20,67.3,53.3,47.5,47.6,43.8,42.4,84,71,47,29.95,29.81,3,0,4,0.00
2013-10-21,61.8,49.5,40.0,42.8,37.5,33.9,86,65,40,30.13,29.96,7,2,11,0.00
2013-10-22,68.3,54.6,40.5,45.8,41.3,36.5,89,64,38,30.03,29.97,11,4,19,0.00
2013-10-23,67.8,57.0,44.4,44.6,42.4,40.4,88,60,42,30.15,29.99,9,2,11,0.00
2013-10-24,53.7,43.2,31.5,40.5,32.9,27.2,92,69,41,30.44,30.15,6,2,11,0.00
2013-10-25,59.9,44.4,27.3,39.6,31.4,24.8,92,65,29,30.47,30.15,11,5,16,0.00
2013-10-26,64.5,50.6,31.7,47.8,36.4,25.2,84,63,23,30.19,30.09,7,3,15,0.00
2013-10-27,67.6,45.2,25.6,37.2,30.4,23.1,92,62,28,30.17,29.92,13,4,16,0.00
2013-10-28,65.4,55.6,43.8,56.7,49.4,31.9,94,80,59,30.04,29.95,12,7,15,0.00
2013-10-29,70.5,60.8,54.7,66.8,58.3,52.1,96,92,81,29.97,29.84,15,5,15,1.58
2013-10-30,61.1,53.1,48.5,60.0,51.6,46.9,96,94,90,29.92,29.72,8,2,11,0.12
2013-10-31,62.5,51.0,44.4,50.5,44.7,40.1,95,81,47,29.73,29.58,14,4,19,0.61
2013-11-1,60.8,49.2,38.2,44.4,39.2,34.5,90,70,43,30.10,29.73,11,4,16,0.00
2013-11-2,58.6,46.1,35.9,37.8,33.8,29.7,84,64,34,30.29,30.10,7,4,10,0.00
2013-11-3,62.5,51.0,42.3,41.0,36.9,32.6,71,59,43,30.13,29.77,22,13,26,0.00
2013-11-4,62.9,53.7,48.1,50.2,44.4,41.2,86,72,51,30.03,29.76,16,6,24,0.00
2013-11-5,59.7,51.8,38.1,58.1,49.4,35.5,95,91,87,30.05,29.80,13,8,19,0.38
2013-11-6,44.9,37.0,31.7,36.1,33.0,29.3,92,85,67,30.37,30.06,11,4,15,0.00
2013-11-7,58.6,41.2,28.7,40.5,33.7,26.8,94,77,43,30.48,30.30,5,1,9,0.01
2013-11-8,65.0,50.6,36.8,39.8,36.3,32.8,87,61,34,30.30,29.85,25,12,35,0.00
2013-11-9,64.4,47.5,34.2,43.9,37.1,31.1,91,70,37,30.29,29.97,10,3,11,0.00
2013-11-10,63.5,49.5,35.5,48.8,40.7,33.1,93,74,47,30.38,30.21,13,5,15,0.00
2013-11-11,56.2,45.1,27.4,53.3,40.9,16.7,92,85,64,30.67,30.15,8,5,16,0.00
2013-11-12,34.8,25.4,18.4,16.5,13.6,10.1,83,62,38,30.92,30.67,7,3,13,0.00
2013-11-13,50.2,34.8,17.8,28.4,20.8,13.0,84,59,39,30.74,30.18,17,10,22,0.00
2013-11-14,56.2,44.7,34.9,34.1,29.5,20.0,77,56,41,30.18,29.94,16,10,20,0.00
2013-11-15,59.2,46.4,30.9,47.6,38.4,27.3,90,75,52,29.95,29.62,14,7,20,0.00
2013-11-16,76.1,62.8,52.4,55.2,52.2,47.3,89,70,41,29.62,29.30,22,14,28,0.00
2013-11-17,64.7,54.1,38.3,46.9,29.2,12.9,72,42,14,30.12,29.30,20,9,27,0.00
2013-11-18,59.6,42.3,25.6,32.8,25.7,21.7,90,56,23,30.30,30.05,7,2,9,0.00
2013-11-19,62.5,48.8,34.3,36.7,30.0,26.9,77,51,30,30.22,29.85,19,10,23,0.00
2013-11-20,62.0,53.5,48.4,49.1,40.1,28.3,82,62,42,29.88,29.74,17,10,23,0.00
2013-11-21,51.5,34.0,23.0,48.4,30.9,19.3,92,88,79,30.54,29.87,10,7,14,0.08
2013-11-22,27.8,24.3,20.7,19.3,17.3,15.4,86,75,62,30.74,30.55,10,6,17,0.00
2013-11-23,32.1,26.9,18.5,20.6,16.4,10.6,72,64,53,30.84,30.69,7,3,11,0.00
2013-11-24,28.1,22.4,15.0,15.5,11.0,6.4,83,63,41,30.79,30.35,10,5,13,0.00
2013-11-25,36.9,28.5,19.8,27.3,20.7,14.2,92,73,60,30.35,30.23,10,4,13,0.00
2013-11-26,38.4,28.4,17.1,26.8,17.7,8.0,90,66,39,30.51,30.27,11,4,19,0.00
2013-11-27,38.3,23.9,9.4,21.0,12.1,-99.9,85,64,40,30.52,30.22,13,-6,16,0.00
2013-11-28,46.1,31.8,18.2,27.0,22.1,15.0,90,69,45,30.47,30.20,10,3,11,0.00
2013-11-30,28.8,27.5,26.6,24.9,24.0,23.3,88,87,85,30.15,30.13,0,0,0,0.00
2013-12-1,64.0,38.7,21.8,41.1,30.0,19.5,94,75,37,30.14,29.88,4,0,6,0.00
2013-12-2,61.9,40.0,27.2,41.6,33.7,25.3,94,81,41,29.88,29.61,8,3,11,0.00
2013-12-3,62.2,46.7,29.1,45.7,39.0,26.9,95,77,47,29.61,29.47,8,3,10,0.01
2013-12-4,40.7,27.8,20.0,38.5,22.9,10.1,93,82,62,30.17,29.54,13,8,16,0.00
2013-12-5,20.1,16.0,13.2,10.1,5.5,1.9,84,63,53,30.50,30.17,12,6,17,0.00
2013-12-6,19.3,12.9,6.2,9.3,0.9,-2.9,84,59,41,30.74,30.44,8,4,12,0.00
2013-12-7,20.9,12.9,1.0,6.4,1.3,-4.2,80,61,44,30.78,30.37,10,5,14,0.00
2013-12-8,21.9,19.5,12.3,19.4,15.1,6.3,90,84,57,30.36,30.01,10,6,15,0.00
2013-12-9,17.6,11.4,5.9,9.0,4.6,-0.2,88,74,54,30.51,30.28,6,3,10,0.00
2013-12-10,42.5,23.6,6.4,18.6,11.1,0.4,82,62,30,30.45,30.19,12,5,16,0.00
2013-12-11,28.5,19.8,9.8,16.0,6.2,-0.9,85,57,31,30.69,30.28,7,2,11,0.00
2013-12-12,46.2,28.3,10.1,23.1,15.5,1.3,78,60,38,30.65,30.16,15,8,18,0.00
2013-12-13,47.8,38.4,28.9,36.8,31.8,23.0,85,77,65,30.16,29.77,15,8,19,0.00
2013-12-14,36.8,26.2,16.1,28.0,19.3,12.4,87,76,56,30.29,29.96,12,6,15,0.00
2013-12-15,60.4,35.6,16.5,29.2,21.3,13.0,90,62,26,30.28,30.07,11,2,16,0.00
2013-12-16,63.6,38.7,24.7,30.2,23.6,18.8,81,59,26,30.18,30.03,8,2,9,0.00
2013-12-17,54.0,35.1,22.5,33.0,22.9,17.7,89,65,33,30.37,30.17,9,2,13,0.00
2013-12-18,65.2,46.8,27.2,38.0,31.1,19.6,80,57,32,30.25,29.74,18,10,22,0.00
2013-12-19,57.7,48.5,29.9,48.7,41.6,22.9,90,77,62,29.74,29.56,13,8,18,0.00
2013-12-20,29.1,19.3,15.1,22.2,15.0,11.6,90,83,75,30.03,29.75,12,6,14,0.00
2013-12-21,24.6,22.8,21.2,22.0,18.7,15.4,92,84,77,29.95,29.66,8,4,11,0.00
2013-12-22,23.3,16.4,-1.8,20.7,12.7,-5.5,91,85,77,30.45,29.88,8,4,11,0.04
2013-12-23,18.5,11.6,-3.1,12.3,7.3,-6.7,90,83,75,30.74,30.46,5,2,7,0.00
2013-12-24,29.2,20.0,15.1,27.7,17.5,10.9,94,90,83,30.65,30.21,14,9,17,0.00